Weather at Flotta Isle Airstrip

Public forecast

Using degrees Celsius for public forecast. Weather courtesy of forecast.io.

Closest aviation weather report (METAR) to Flotta Isle Airstrip

Closest report is Kirkwall Airport, 10.8 nm (20.1 km) NE.

2024/05/22 05:50 (retrieved 32 minutes ago)

EGPA 220550Z 15005KT 1100 BR BKN002 11/11 Q1012

Closest aviation forecast (TAF) to Flotta Isle Airstrip

Closest forecast is RAF Lossiemouth, 67.6 nm (125.1 km) S.

2024/05/22 06:39 (retrieved 0 seconds ago)

TAF TAF EGQS 220433Z 2206/2224 VRB04KT 3000 BR BKN005 PROB40 2206/2212 0600 FG BKN001 BECMG 2209/2212 9999 NSW FEW040 PROB40 2212/2215 SCT008 PROB40 2215/2224 3000 +RA SCT008 PROB30 TEMPO 2219/2224 35015G25KT